sensor_id;sensor_type;location;lat;lon;timestamp;pressure;altitude;pressure_sealevel;temperature;humidity
78894;BME280;68282;42.698;23.350;2023-04-29T17:54:47;95199.16;;;15.13;46.23
78894;BME280;68282;42.698;23.350;2023-04-29T17:57:13;95196.44;;;15.29;46.04
78894;BME280;68282;42.698;23.350;2023-04-29T17:59:38;95196.75;;;15.48;45.48
78894;BME280;68282;42.698;23.350;2023-04-29T18:02:05;95201.97;;;15.65;45.12
78894;BME280;68282;42.698;23.350;2023-04-29T18:04:30;95198.38;;;15.80;44.70
78894;BME280;68282;42.698;23.350;2023-04-29T18:06:56;95197.59;;;15.95;44.61
78894;BME280;68282;42.698;23.350;2023-04-29T18:09:22;95190.72;;;16.08;44.63
78894;BME280;68282;42.698;23.350;2023-04-29T18:11:47;95194.81;;;16.16;44.22
78894;BME280;68282;42.698;23.350;2023-04-29T18:14:13;95196.72;;;16.26;43.90
78894;BME280;68282;42.698;23.350;2023-04-29T18:16:38;95199.16;;;16.27;44.12
78894;BME280;68282;42.698;23.350;2023-04-29T18:19:04;95203.56;;;16.33;43.63
78894;BME280;68282;42.698;23.350;2023-04-29T18:21:29;95201.09;;;16.37;43.05
78894;BME280;68282;42.698;23.350;2023-04-29T18:23:56;95207.38;;;16.43;42.83
78894;BME280;68282;42.698;23.350;2023-04-29T18:26:21;95209.56;;;16.46;42.57
78894;BME280;68282;42.698;23.350;2023-04-29T18:28:47;95206.53;;;16.47;42.29
78894;BME280;68282;42.698;23.350;2023-04-29T18:31:17;95201.34;;;16.46;42.00
78894;BME280;68282;42.698;23.350;2023-04-29T18:33:43;95202.97;;;16.52;41.99
78894;BME280;68282;42.698;23.350;2023-04-29T18:36:08;95202.97;;;16.52;42.14
78894;BME280;68282;42.698;23.350;2023-04-29T18:38:34;95210.38;;;16.51;42.23
78894;BME280;68282;42.698;23.350;2023-04-29T18:41:00;95208.75;;;16.50;42.19
78894;BME280;68282;42.698;23.350;2023-04-29T18:43:25;95201.31;;;16.56;41.83
78894;BME280;68282;42.698;23.350;2023-04-29T18:45:56;95209.81;;;16.60;41.53
78894;BME280;68282;42.698;23.350;2023-04-29T18:48:22;95209.81;;;16.60;41.73
78894;BME280;68282;42.698;23.350;2023-04-29T18:50:51;95199.38;;;16.57;41.92
78894;BME280;68282;42.698;23.350;2023-04-29T18:53:17;95217.50;;;16.58;41.49
78894;BME280;68282;42.698;23.350;2023-04-29T18:55:42;95219.69;;;16.56;42.02
78894;BME280;68282;42.698;23.350;2023-04-29T18:58:08;95222.19;;;16.52;42.40
78894;BME280;68282;42.698;23.350;2023-04-29T19:00:34;95214.78;;;16.52;41.95
78894;BME280;68282;42.698;23.350;2023-04-29T19:02:59;95214.78;;;16.47;41.74
78894;BME280;68282;42.698;23.350;2023-04-29T19:05:25;95223.56;;;16.49;41.92
78894;BME280;68282;42.698;23.350;2023-04-29T19:07:51;95227.41;;;16.48;41.97
78894;BME280;68282;42.698;23.350;2023-04-29T19:10:16;95220.28;;;16.47;42.09
78894;BME280;68282;42.698;23.350;2023-04-29T19:12:42;95213.69;;;16.48;42.16
78894;BME280;68282;42.698;23.350;2023-04-29T19:15:08;95216.44;;;16.48;41.84
78894;BME280;68282;42.698;23.350;2023-04-29T19:17:33;95209.28;;;16.47;41.67
78894;BME280;68282;42.698;23.350;2023-04-29T19:19:59;95214.78;;;16.47;42.08
78894;BME280;68282;42.698;23.350;2023-04-29T19:22:28;95210.69;;;16.45;42.25
78894;BME280;68282;42.698;23.350;2023-04-29T19:24:54;95222.19;;;16.47;41.97
78894;BME280;68282;42.698;23.350;2023-04-29T19:27:20;95218.63;;;16.46;41.99
78894;BME280;68282;42.698;23.350;2023-04-29T19:29:46;95221.09;;;16.43;42.11
78894;BME280;68282;42.698;23.350;2023-04-29T19:32:11;95214.25;;;16.40;42.34
78894;BME280;68282;42.698;23.350;2023-04-29T19:34:36;95223.84;;;16.37;42.35
78894;BME280;68282;42.698;23.350;2023-04-29T19:37:02;95217.03;;;16.30;42.67
78894;BME280;68282;42.698;23.350;2023-04-29T19:39:27;95219.78;;;16.25;43.04
78894;BME280;68282;42.698;23.350;2023-04-29T19:41:53;95211.53;;;16.25;43.51
78894;BME280;68282;42.698;23.350;2023-04-29T19:44:20;95211.25;;;16.26;43.43
78894;BME280;68282;42.698;23.350;2023-04-29T19:46:49;95226.91;;;16.26;43.89
78894;BME280;68282;42.698;23.350;2023-04-29T19:49:16;95225.25;;;16.25;43.51
78894;BME280;68282;42.698;23.350;2023-04-29T19:51:41;95231.88;;;16.18;44.06
78894;BME280;68282;42.698;23.350;2023-04-29T19:54:06;95220.59;;;16.20;44.15
78894;BME280;68282;42.698;23.350;2023-04-29T19:56:32;95225.81;;;16.27;56.92
78894;BME280;68282;42.698;23.350;2023-04-29T19:58:57;95224.97;;;16.26;44.89
78894;BME280;68282;42.698;23.350;2023-04-29T20:01:23;95230.22;;;16.17;45.08
78894;BME280;68282;42.698;23.350;2023-04-29T20:03:48;95228.28;;;16.18;45.14
78894;BME280;68282;42.698;23.350;2023-04-29T20:06:17;95220.34;;;16.16;44.93
78894;BME280;68282;42.698;23.350;2023-04-29T20:08:44;95222.81;;;16.13;45.15
78894;BME280;68282;42.698;23.350;2023-04-29T20:11:09;95222.25;;;16.11;45.36
78894;BME280;68282;42.698;23.350;2023-04-29T20:13:35;95223.66;;;16.08;45.56
78894;BME280;68282;42.698;23.350;2023-04-29T20:16:01;95220.06;;;16.07;45.66
78894;BME280;68282;42.698;23.350;2023-04-29T20:18:26;95212.66;;;16.03;45.72
78894;BME280;68282;42.698;23.350;2023-04-29T20:20:51;95215.69;;;16.01;46.11
78894;BME280;68282;42.698;23.350;2023-04-29T20:23:17;95214.59;;;15.97;46.47
78894;BME280;68282;42.698;23.350;2023-04-29T20:25:42;95218.97;;;15.98;46.54
78894;BME280;68282;42.698;23.350;2023-04-29T20:28:08;95216.53;;;15.97;46.40
78894;BME280;68282;42.698;23.350;2023-04-29T20:30:34;95214.31;;;15.94;46.20
78894;BME280;68282;42.698;23.350;2023-04-29T20:33:00;95206.38;;;15.92;46.50
78894;BME280;68282;42.698;23.350;2023-04-29T20:35:25;95218.16;;;15.92;46.71
78894;BME280;68282;42.698;23.350;2023-04-29T20:37:51;95204.13;;;15.84;46.75
78894;BME280;68282;42.698;23.350;2023-04-29T20:40:17;95206.66;;;15.85;46.55
78894;BME280;68282;42.698;23.350;2023-04-29T20:42:43;95204.13;;;15.84;46.89
78894;BME280;68282;42.698;23.350;2023-04-29T20:45:09;95208.81;;;15.83;47.01
78894;BME280;68282;42.698;23.350;2023-04-29T20:47:36;95212.13;;;15.75;47.22
78894;BME280;68282;42.698;23.350;2023-04-29T20:50:01;95213.19;;;15.79;47.39
78894;BME280;68282;42.698;23.350;2023-04-29T20:52:29;95219.78;;;15.78;47.72
78894;BME280;68282;42.698;23.350;2023-04-29T20:54:55;95210.47;;;15.74;47.82
78894;BME280;68282;42.698;23.350;2023-04-29T20:57:21;95216.75;;;15.74;47.98
78894;BME280;68282;42.698;23.350;2023-04-29T20:59:47;95217.31;;;15.71;48.44
78894;BME280;68282;42.698;23.350;2023-04-29T21:02:13;95209.34;;;15.70;48.21
78894;BME280;68282;42.698;23.350;2023-04-29T21:04:38;95214.03;;;15.69;48.24
78894;BME280;68282;42.698;23.350;2023-04-29T21:07:04;95211.84;;;15.66;48.57
78894;BME280;68282;42.698;23.350;2023-04-29T21:09:31;95210.72;;;15.62;48.69
78894;BME280;68282;42.698;23.350;2023-04-29T21:11:56;95210.72;;;15.62;48.71
78894;BME280;68282;42.698;23.350;2023-04-29T21:14:24;95211.28;;;15.64;49.12
78894;BME280;68282;42.698;23.350;2023-04-29T21:16:50;95208.25;;;15.60;49.20
78894;BME280;68282;42.698;23.350;2023-04-29T21:19:16;95218.94;;;15.62;49.55
78894;BME280;68282;42.698;23.350;2023-04-29T21:21:41;95218.13;;;15.61;49.83
78894;BME280;68282;42.698;23.350;2023-04-29T21:24:08;95211.00;;;15.55;50.61
78894;BME280;68282;42.698;23.350;2023-04-29T21:26:33;95206.63;;;15.54;50.51
78894;BME280;68282;42.698;23.350;2023-04-29T21:28:58;95201.94;;;15.50;50.22
78894;BME280;68282;42.698;23.350;2023-04-29T21:31:24;95209.63;;;15.48;50.78
78894;BME280;68282;42.698;23.350;2023-04-29T21:33:49;95206.06;;;15.47;51.10
78894;BME280;68282;42.698;23.350;2023-04-29T21:36:15;95205.25;;;15.46;50.92
78894;BME280;68282;42.698;23.350;2023-04-29T21:38:40;95201.09;;;15.44;51.29
78894;BME280;68282;42.698;23.350;2023-04-29T21:41:35;95201.41;;;15.42;51.02
78894;BME280;68282;42.698;23.350;2023-04-29T21:43:59;95206.88;;;15.37;51.75
78894;BME280;68282;42.698;23.350;2023-04-29T21:46:26;95207.41;;;15.34;51.53
78894;BME280;68282;42.698;23.350;2023-04-29T21:48:52;95216.19;;;15.36;51.78
78894;BME280;68282;42.698;23.350;2023-04-29T21:51:18;95213.72;;;15.35;51.68
78894;BME280;68282;42.698;23.350;2023-04-29T21:53:46;95214.00;;;15.33;51.67
78894;BME280;68282;42.698;23.350;2023-04-29T21:56:12;95206.31;;;15.30;52.04
78894;BME280;68282;42.698;23.350;2023-04-29T21:58:37;95212.63;;;15.30;52.50
78894;BME280;68282;42.698;23.350;2023-04-29T22:01:03;95213.69;;;15.24;52.33
78894;BME280;68282;42.698;23.350;2023-04-29T22:03:48;95204.91;;;15.22;52.66
78894;BME280;68282;42.698;23.350;2023-04-29T22:06:14;95210.69;;;15.21;52.59
78894;BME280;68282;42.698;23.350;2023-04-29T22:08:39;95203.84;;;15.18;52.82
78894;BME280;68282;42.698;23.350;2023-04-29T22:11:05;95209.31;;;15.18;53.15
78894;BME280;68282;42.698;23.350;2023-04-29T22:13:30;95206.28;;;15.20;53.08
78894;BME280;68282;42.698;23.350;2023-04-29T22:15:56;95204.09;;;15.17;53.42
78894;BME280;68282;42.698;23.350;2023-04-29T22:18:21;95204.09;;;15.17;53.22
78894;BME280;68282;42.698;23.350;2023-04-29T22:20:46;95203.28;;;15.16;53.08
78894;BME280;68282;42.698;23.350;2023-04-29T22:23:12;95197.22;;;15.14;53.21
78894;BME280;68282;42.698;23.350;2023-04-29T22:25:38;95209.28;;;15.13;53.19
78894;BME280;68282;42.698;23.350;2023-04-29T22:28:03;95196.69;;;15.12;53.76
78894;BME280;68282;42.698;23.350;2023-04-29T22:30:28;95198.88;;;15.10;53.72
78894;BME280;68282;42.698;23.350;2023-04-29T22:32:54;95202.97;;;15.07;53.90
78894;BME280;68282;42.698;23.350;2023-04-29T22:35:20;95192.81;;;15.03;53.84
78894;BME280;68282;42.698;23.350;2023-04-29T22:37:45;95193.09;;;15.01;54.17
78894;BME280;68282;42.698;23.350;2023-04-29T22:40:12;95192.00;;;14.97;54.09
78894;BME280;68282;42.698;23.350;2023-04-29T22:42:37;95189.00;;;14.98;54.33
78894;BME280;68282;42.698;23.350;2023-04-29T22:45:04;95188.16;;;14.93;54.07
78894;BME280;68282;42.698;23.350;2023-04-29T22:47:29;95191.44;;;14.90;54.00
78894;BME280;68282;42.698;23.350;2023-04-29T22:49:55;95184.03;;;14.85;53.96
78894;BME280;68282;42.698;23.350;2023-04-29T22:52:20;95174.44;;;14.82;54.31
78894;BME280;68282;42.698;23.350;2023-04-29T22:54:46;95177.44;;;14.76;54.00
78894;BME280;68282;42.698;23.350;2023-04-29T22:57:11;95169.22;;;14.76;53.92
78894;BME280;68282;42.698;23.350;2023-04-29T22:59:36;95174.94;;;14.74;54.00
78894;BME280;68282;42.698;23.350;2023-04-29T23:02:02;95173.84;;;14.70;54.45
78894;BME280;68282;42.698;23.350;2023-04-29T23:04:27;95165.31;;;14.66;54.29
78894;BME280;68282;42.698;23.350;2023-04-29T23:06:52;95163.94;;;14.64;54.61
78894;BME280;68282;42.698;23.350;2023-04-29T23:09:18;95165.00;;;14.58;54.49
78894;BME280;68282;42.698;23.350;2023-04-29T23:11:43;95154.88;;;14.53;54.39
78894;BME280;68282;42.698;23.350;2023-04-29T23:14:09;95164.13;;;14.47;54.68
78894;BME280;68282;42.698;23.350;2023-04-29T23:16:34;95160.31;;;14.43;54.74
78894;BME280;68282;42.698;23.350;2023-04-29T23:19:00;95157.00;;;14.41;54.53
78894;BME280;68282;42.698;23.350;2023-04-29T23:21:25;95163.00;;;14.37;54.77
78894;BME280;68282;42.698;23.350;2023-04-29T23:23:51;95159.41;;;14.32;55.13
78894;BME280;68282;42.698;23.350;2023-04-29T23:26:17;95157.50;;;14.27;54.89
78894;BME280;68282;42.698;23.350;2023-04-29T23:28:42;95160.75;;;14.24;54.90
78894;BME280;68282;42.698;23.350;2023-04-29T23:31:07;95156.91;;;14.20;54.75
78894;BME280;68282;42.698;23.350;2023-04-29T23:33:33;95154.13;;;14.15;54.47
78894;BME280;68282;42.698;23.350;2023-04-29T23:35:58;95147.56;;;14.11;54.63
78894;BME280;68282;42.698;23.350;2023-04-29T23:38:23;95151.63;;;14.08;54.59
78894;BME280;68282;42.698;23.350;2023-04-29T23:40:49;95155.47;;;14.07;54.51
78894;BME280;68282;42.698;23.350;2023-04-29T23:43:14;95156.53;;;14.06;54.97
78894;BME280;68282;42.698;23.350;2023-04-29T23:45:42;95152.97;;;14.00;54.49
78894;BME280;68282;42.698;23.350;2023-04-29T23:48:08;95153.75;;;13.96;54.68
78894;BME280;68282;42.698;23.350;2023-04-29T23:50:33;95152.38;;;13.93;55.03
78894;BME280;68282;42.698;23.350;2023-04-29T23:52:59;95139.22;;;13.90;54.64
78894;BME280;68282;42.698;23.350;2023-04-29T23:55:24;95145.81;;;13.89;54.63
78894;BME280;68282;42.698;23.350;2023-04-29T23:57:49;95145.75;;;13.84;54.40
